Data for 10/08/2007

Time Sea-Level Adjusted Pressure Absolute Pressure Temperature Relative Humidity Dew Point   
(mb) (inHg) (mb) (inHg) (C) (F) (%) (C) (F)
00:05 1019 30.09 848 25.04 7 44.6 75 2.9 37.3
00:10 1018 30.06 848 25.04 6.7 44 77 3 37.3
00:15 1018 30.06 848 25.04 6.5 43.7 77 2.7 36.8
00:20 1019 30.09 848 25.04 6.6 43.9 75 2.6 36.6
00:25 1019 30.09 848 25.04 6.7 44.1 75 2.6 36.6
00:30 1019 30.09 848 25.04 6.8 44.2 75 2.7 36.8
00:35 1019 30.09 848 25.04 6.8 44.2 74 2.5 36.5
00:40 1019 30.09 848 25.04 6.9 44.4 73 2.4 36.3
00:45 1019 30.09 848 25.04 7.1 44.7 72 2.4 36.4
00:50 1019 30.09 848 25.04 7.1 44.9 72 2.5 36.5
00:55 1019 30.09 848 25.04 7.2 45 71 2.4 36.3
01:00 1019 30.09 848 25.04 7.4 45.4 70 2.2 36
01:05 1019 30.09 848 25.04 7.6 45.6 69 2.2 36
01:10 1019 30.09 848 25.04 7.7 45.8 69 2.4 36.3
01:15 1019 30.09 848 25.04 7.7 45.9 69 2.4 36.4
01:20 1019 30.09 848 25.04 7.8 46.1 69 2.6 36.6
01:25 1019 30.09 848 25.04 7.7 45.9 69 2.3 36.2
01:30 1019 30.09 848 25.04 7.7 45.9 69 2.5 36.4
01:35 1019 30.09 848 25.04 7.5 45.5 70 2.5 36.5
01:40 1019 30.09 848 25.04 7.1 44.8 72 2.4 36.2
01:45 1019 30.09 848 25.04 6.9 44.4 72 2.2 36
01:50 1019 30.09 848 25.04 6.9 44.4 72 2.2 35.9
01:55 1019 30.09 848 25.04 7 44.6 71 2.1 35.8
02:00 1019 30.09 848 25.04 7 44.5 72 2.3 36.1
02:05 1019 30.09 848 25.04 6.9 44.4 71 2 35.6
02:10 1019 30.09 848 25.04 7.1 44.8 70 2 35.7
02:15 1019 30.09 848 25.04 7.2 44.9 70 2.1 35.9
02:20 1019 30.09 848 25.04 7.2 44.9 70 2.1 35.8
02:25 1019 30.09 848 25.04 7.2 45 70 2.2 35.9
02:30 1019 30.09 848 25.04 7.3 45.1 70 2.2 35.9
02:35 1019 30.09 848 25.04 7.2 45 70 2.2 36
02:40 1019 30.09 848 25.04 7.2 45 71 2.4 36.3
02:45 1019 30.09 848 25.04 7.2 44.9 71 2.2 36
02:50 1019 30.09 848 25.04 7.3 45.1 70 2.2 36
02:55 1019 30.09 848 25.04 7.4 45.2 70 2.2 36
03:00 1019 30.09 848 25.04 7.5 45.5 70 2.3 36.2
03:05 1019 30.09 848 25.04 7.5 45.4 70 2.3 36.2
03:10 1019 30.09 848 25.04 7.4 45.4 70 2.3 36.2
03:15 1019 30.09 848 25.04 7.5 45.5 70 2.3 36.2
03:20 1019 30.09 848 25.04 7.5 45.5 70 2.4 36.3
03:25 1019 30.09 848 25.04 7.4 45.3 70 2.4 36.3
03:30 1019 30.09 848 25.04 7.3 45.1 70 2.3 36.1
03:35 1019 30.09 848 25.04 7.3 45.1 70 2.2 35.9
03:40 1019 30.09 848 25.04 7.3 45.1 70 2.1 35.8
03:45 1019 30.09 848 25.04 7.2 44.9 70 2.2 35.9
03:50 1019 30.09 848 25.04 7 44.6 72 2.2 36
03:55 1019 30.09 848 25.04 6.7 44 74 2.4 36.4
04:00 1019 30.09 848 25.04 6.3 43.4 75 2.3 36.2
04:05 1019 30.09 848 25.04 6.3 43.4 76 2.4 36.3
04:10 1019 30.09 848 25.04 6.4 43.5 73 2 35.6
04:15 1019 30.09 848 25.04 6.5 43.6 75 2.3 36.2
04:20 1019 30.09 848 25.04 6.2 43.2 76 2.4 36.3
04:25 1019 30.09 848 25.04 5.9 42.6 78 2.3 36.1
04:30 1019 30.09 848 25.04 5.9 42.6 76 2.1 35.7
04:35 1019 30.09 848 25.04 6 42.8 77 2.4 36.2
04:40 1019 30.09 848 25.04 6.1 43.1 76 2.3 36.1
04:45 1019 30.09 848 25.04 6 42.9 79 2.7 36.8
04:50 1019 30.09 848 25.04 5.9 42.6 79 2.5 36.6
04:55 1019 30.09 849 25.07 6.1 43 76 2.2 36
05:00 1019 30.09 849 25.07 6.6 43.8 74 2.2 36
05:05 1019 30.09 849 25.07 6.9 44.5 72 2.3 36.2
05:10 1020 30.12 849 25.07 7.2 45 72 2.4 36.4
05:15 1020 30.12 849 25.07 7.3 45.1 71 2.4 36.3
05:20 1019 30.09 849 25.07 7.2 45 72 2.5 36.5
05:25 1019 30.09 849 25.07 7.1 44.8 72 2.3 36.2
05:30 1019 30.09 849 25.07 7.2 44.9 71 2.2 36
05:35 1019 30.09 849 25.07 7.3 45.1 70 2.1 35.8
05:40 1019 30.09 849 25.07 7.6 45.6 67 1.8 35.3
05:45 1019 30.09 849 25.07 7.7 45.8 68 2.1 35.8
05:50 1019 30.09 848 25.04 7.5 45.4 70 2.3 36.1
05:55 1019 30.09 848 25.04 7.1 44.8 71 2.2 36
06:00 1019 30.09 849 25.07 6.9 44.4 72 2.2 36
06:05 1019 30.09 849 25.07 6.7 44 73 2.2 35.9
06:10 1020 30.12 849 25.07 6.5 43.7 73 2.1 35.8
06:15 1019 30.09 849 25.07 6.5 43.6 73 2 35.7
06:20 1019 30.09 849 25.07 6.3 43.4 73 1.9 35.4
06:25 1020 30.12 849 25.07 6.3 43.4 73 1.9 35.4
06:30 1020 30.12 849 25.07 6.2 43.1 74 1.9 35.4
06:35 1020 30.12 849 25.07 6.1 43 74 1.8 35.2
06:40 1020 30.12 849 25.07 6.2 43.1 73 1.8 35.2
06:45 1020 30.12 849 25.07 6.2 43.2 74 1.9 35.4
06:50 1020 30.12 849 25.07 6.1 43 74 1.9 35.4
06:55 1020 30.12 849 25.07 6 42.8 75 1.9 35.5
07:00 1020 30.12 849 25.07 5.7 42.3 76 1.8 35.3
07:05 1020 30.12 849 25.07 5.4 41.7 78 1.9 35.3
07:10 1020 30.12 849 25.07 5.1 41.1 78 1.5 34.7
07:15 1020 30.12 849 25.07 6.1 43.1 70 1 33.8
07:20 1020 30.12 849 25.07 7 44.5 67 1.4 34.5
07:25 1020 30.12 850 25.1 7.2 44.9 67 1.5 34.8
07:30 1020 30.12 850 25.1 7.1 44.7 68 1.6 34.9
07:35 1020 30.12 850 25.1 6.9 44.4 69 1.7 35
07:40 1020 30.12 850 25.1 6.5 43.7 71 1.6 34.9
07:45 1020 30.12 850 25.1 5.6 42.1 75 1.6 34.9
07:50 1020 30.12 850 25.1 5.3 41.5 75 1.2 34.2
07:55 1020 30.12 850 25.1 5.3 41.6 75 1.3 34.3
08:00 1021 30.15 850 25.1 5.3 41.6 76 1.4 34.5
08:05 1021 30.15 850 25.1 5.3 41.6 76 1.4 34.5
08:10 1021 30.15 850 25.1 5.3 41.6 77 1.6 34.8
08:15 1021 30.15 850 25.1 5.3 41.5 77 1.6 34.9
08:20 1021 30.15 850 25.1 5 41 78 1.5 34.7
08:25 1021 30.15 850 25.1 5.1 41.1 77 1.4 34.5
08:30 1021 30.15 850 25.1 5.3 41.5 77 1.6 34.8
08:35 1021 30.15 850 25.1 5.6 42 75 1.5 34.7
08:40 1021 30.15 850 25.1 5.9 42.6 74 1.6 35
08:45 1021 30.15 850 25.1 6.4 43.5 71 1.6 34.9
08:50 1021 30.15 850 25.1 6.8 44.3 70 1.8 35.3
08:55 1021 30.15 850 25.1 7 44.5 71 2 35.6
09:00 1021 30.15 850 25.1 7.3 45.1 70 2.2 35.9
09:05 1021 30.15 850 25.1 7.4 45.2 70 2.2 36
09:10 1021 30.15 850 25.1 7.5 45.4 70 2.3 36.2
09:15 1021 30.15 850 25.1 7.6 45.7 70 2.5 36.5
09:20 1021 30.15 850 25.1 7.7 45.8 70 2.6 36.6
09:25 1021 30.15 850 25.1 7.9 46.2 71 2.9 37.3
09:30 1021 30.15 850 25.1 8.2 46.8 68 2.7 36.8
09:35 1021 30.15 850 25.1 8.9 48 67 3.1 37.5
09:40 1021 30.15 850 25.1 9.5 49.1 66 3.4 38.2
09:45 1021 30.15 850 25.1 10.2 50.3 64 3.7 38.7
09:50 1021 30.15 850 25.1 10 50 64 3.6 38.5
09:55 1021 30.15 850 25.1 9.8 49.6 66 3.7 38.7
10:00 1021 30.15 850 25.1 10.3 50.5 63 3.5 38.3
10:05 1021 30.15 850 25.1 10.6 51.1 59 2.9 37.3
10:10 1021 30.15 850 25.1 11 51.9 58 3.1 37.6
10:15 1021 30.15 850 25.1 11.5 52.7 55 2.9 37.2
10:20 1021 30.15 850 25.1 11.8 53.3 56 3.3 37.9
10:25 1021 30.15 850 25.1 12.2 54 52 2.7 36.8
10:30 1021 30.15 850 25.1 12.6 54.7 52 3.1 37.5
10:35 1021 30.15 850 25.1 13.1 55.6 50 3.1 37.6
10:40 1021 30.15 850 25.1 13.1 55.5 52 3.6 38.4
10:45 1021 30.15 850 25.1 12.2 54 54 3.3 37.9
10:50 1021 30.15 850 25.1 12.1 53.8 49 1.8 35.3
10:55 1021 30.15 850 25.1 12.2 53.9 48 1.5 34.7
11:00 1021 30.15 850 25.1 12.6 54.6 45 0.9 33.6
11:05 1021 30.15 850 25.1 12.8 55.1 46 1.5 34.8
11:10 1021 30.15 850 25.1 13.4 56.1 45 1.6 34.9
11:15 1021 30.15 850 25.1 13 55.5 46 1.7 35
11:20 1021 30.15 850 25.1 12.8 55 47 1.9 35.4
11:25 1021 30.15 850 25.1 13.2 55.8 44 1.4 34.5
11:30 1021 30.15 850 25.1 14.2 57.6 43 1.7 35.1
11:35 1021 30.15 850 25.1 14.9 58.7 42 2 35.6
11:40 1021 30.15 850 25.1 14.5 58.1 44 2.6 36.7
11:45 1021 30.15 850 25.1 14.4 57.8 43 1.9 35.4
11:50 1021 30.15 850 25.1 15.1 59.2 41 1.9 35.4
11:55 1021 30.15 850 25.1 15.5 60 40 2 35.6
12:00 1021 30.15 850 25.1 15.7 60.3 40 2.1 35.8
12:05 1021 30.15 850 25.1 16.3 61.3 38 2.2 35.9
12:10 1021 30.15 850 25.1 16.9 62.4 38 2.6 36.7
12:15 1021 30.15 850 25.1 16.4 61.5 38 2.3 36.1
12:20 1021 30.15 850 25.1 16.6 61.9 39 2.7 36.9
12:25 1021 30.15 850 25.1 16.5 61.7 39 2.7 36.9
12:30 1021 30.15 850 25.1 16.4 61.4 39 2.6 36.6
12:35 1021 30.15 850 25.1 16 60.8 41 2.7 36.8
12:40 1021 30.15 850 25.1 16.3 61.4 40 2.9 37.2
12:45 1021 30.15 850 25.1 15.8 60.4 42 2.9 37.3
12:50 1021 30.15 850 25.1 15.6 60.1 40 2.3 36.1
12:55 1021 30.15 850 25.1 16.3 61.3 39 2.4 36.4
13:00 1021 30.15 850 25.1 16.9 62.5 37 2.2 36
13:05 1021 30.15 850 25.1 17 62.6 39 3.1 37.5
13:10 1021 30.15 850 25.1 16.8 62.2 40 3.2 37.7
13:15 1021 30.15 850 25.1 16.6 61.8 39 2.8 37
13:20 1021 30.15 850 25.1 16 60.8 40 2.6 36.7
13:25 1021 30.15 850 25.1 16.2 61.1 39 2.3 36.1
13:30 1021 30.15 850 25.1 16.4 61.5 39 2.6 36.6
13:35 1021 30.15 850 25.1 16.3 61.4 38 2.1 35.7
13:40 1021 30.15 850 25.1 17.4 63.3 35 1.9 35.4
13:45 1021 30.15 850 25.1 18.2 64.7 35 2.7 36.8
13:50 1021 30.15 850 25.1 16.9 62.5 36 1.8 35.2
13:55 1021 30.15 850 25.1 17.6 63.7 34 1.7 35.1
14:00 1020 30.12 850 25.1 17.9 64.2 32 1.1 34
14:05 1020 30.12 850 25.1 17.8 64.1 33 1.5 34.7
14:10 1020 30.12 850 25.1 16.9 62.4 33 0.8 33.4
14:15 1020 30.12 850 25.1 16.9 62.4 32 0.3 32.5
14:20 1020 30.12 849 25.07 16.7 62 34 0.8 33.4
14:25 1020 30.12 849 25.07 16.6 62 32 -0.2 31.7
14:30 1020 30.12 849 25.07 17.7 63.8 29 -0.7 30.8
14:35 1020 30.12 849 25.07 17.6 63.8 30 0.1 32.1
14:40 1020 30.12 849 25.07 17.8 64 31 0.5 32.8
14:45 1020 30.12 849 25.07 17.2 63 33 0.9 33.7
14:50 1020 30.12 849 25.07 16.1 61.1 32 -0.3 31.5
14:55 1020 30.12 849 25.07 16.2 61.2 33 0.1 32.2
15:00 1020 30.12 849 25.07 16.3 61.3 33 -0.1 31.9
15:05 1020 30.12 849 25.07 16.3 61.4 31 -0.8 30.6
15:10 1020 30.12 849 25.07 16.3 61.3 33 0 32
15:15 1020 30.12 849 25.07 16.4 61.5 34 0.7 33.2
15:20 1020 30.12 849 25.07 16.1 61.1 32 -0.4 31.2
15:25 1020 30.12 849 25.07 16.5 61.7 32 -0.2 31.6
15:30 1020 30.12 849 25.07 16.4 61.4 32 -0.4 31.3
15:35 1020 30.12 849 25.07 16.5 61.7 31 -0.4 31.3
15:40 1020 30.12 849 25.07 16.4 61.6 31 -0.7 30.7
15:45 1020 30.12 849 25.07 16.4 61.5 31 -0.7 30.8
15:50 1020 30.12 849 25.07 16.6 61.9 32 -0.2 31.7
15:55 1020 30.12 849 25.07 16.4 61.6 33 0.4 32.7
16:00 1020 30.12 849 25.07 16.5 61.8 33 0.1 32.2
16:05 1020 30.12 849 25.07 16.6 61.9 31 -0.3 31.5
16:10 1020 30.12 849 25.07 16.4 61.6 32 -0.3 31.4
16:15 1020 30.12 849 25.07 16.5 61.7 31 -0.5 31.1
16:20 1020 30.12 850 25.1 17 62.7 30 -0.4 31.4
16:25 1020 30.12 850 25.1 16.7 62 31 -0.5 31
16:30 1020 30.12 850 25.1 17.2 63 29 -0.7 30.8
16:35 1020 30.12 850 25.1 16.9 62.5 31 -0.1 31.8
16:40 1020 30.12 850 25.1 17 62.7 31 -0.2 31.7
16:45 1020 30.12 850 25.1 17.1 62.7 31 -0.1 31.8
16:50 1020 30.12 850 25.1 16.8 62.3 31 -0.2 31.6
16:55 1020 30.12 850 25.1 17.4 63.2 30 -0.1 31.8
17:00 1020 30.12 850 25.1 17 62.6 31 -0.1 31.9
17:05 1020 30.12 850 25.1 16.8 62.2 32 -0.1 31.8
17:10 1020 30.12 850 25.1 16.9 62.5 32 0 32.1
17:15 1021 30.15 850 25.1 17.3 63.2 32 0.6 33.1
17:20 1020 30.12 850 25.1 16.3 61.4 34 0.4 32.7
17:25 1021 30.15 850 25.1 15.8 60.4 35 0.5 33
17:30 1021 30.15 850 25.1 15.6 60.1 35 0.4 32.7
17:35 1021 30.15 850 25.1 15.6 60.1 36 0.6 33.1
17:40 1021 30.15 850 25.1 15.6 60.1 37 0.9 33.6
17:45 1021 30.15 850 25.1 15.3 59.5 39 1.4 34.5
17:50 1020 30.12 850 25.1 15.1 59.2 39 1.3 34.3
17:55 1020 30.12 850 25.1 15.1 59.2 39 1.5 34.7
18:00 1020 30.12 850 25.1 14.8 58.6 41 1.6 34.9
18:05 1021 30.15 850 25.1 14.4 57.9 41 1.5 34.6
18:10 1020 30.12 850 25.1 14.2 57.6 42 1.7 35
18:15 1020 30.12 850 25.1 13.9 56.9 44 2 35.6
18:20 1020 30.12 850 25.1 13.7 56.7 43 1.5 34.8
18:25 1020 30.12 850 25.1 13.7 56.7 43 1.4 34.6
18:30 1021 30.15 850 25.1 13.8 56.8 41 0.8 33.5
18:35 1021 30.15 850 25.1 13.9 56.9 40 0.7 33.3
18:40 1021 30.15 850 25.1 13.8 56.8 41 0.9 33.7
18:45 1021 30.15 850 25.1 13.6 56.6 42 1 33.8
18:50 1021 30.15 850 25.1 13.5 56.3 43 1.3 34.4
18:55 1021 30.15 850 25.1 13.1 55.5 48 2.4 36.3
19:00 1021 30.15 850 25.1 12.2 54 51 2.4 36.3
19:05 1021 30.15 850 25.1 11.8 53.2 52 2.4 36.4
19:10 1021 30.15 850 25.1 11.5 52.7 53 2.2 36
19:15 1021 30.15 850 25.1 11.3 52.3 53 2.1 35.9
19:20 1021 30.15 850 25.1 11.1 52 54 2.1 35.9
19:25 1021 30.15 850 25.1 11 51.8 54 2.2 36
19:30 1021 30.15 851 25.13 10.7 51.2 56 2.3 36.1
19:35 1021 30.15 851 25.13 10.4 50.6 56 2 35.6
19:40 1021 30.15 851 25.13 10.3 50.5 57 2.1 35.8
19:45 1022 30.18 851 25.13 10.1 50.2 56 1.9 35.4
19:50 1022 30.18 851 25.13 10.1 50.2 57 2 35.7
19:55 1022 30.18 851 25.13 10 50 56 1.8 35.3
20:00 1022 30.18 851 25.13 10 50 57 1.9 35.3
20:05 1022 30.18 851 25.13 9.9 49.8 57 1.9 35.4
20:10 1022 30.18 851 25.13 9.7 49.4 58 2 35.5
20:15 1022 30.18 851 25.13 9.4 49 59 1.9 35.5
20:20 1022 30.18 851 25.13 9.2 48.5 60 1.9 35.3
20:25 1022 30.18 851 25.13 9 48.1 61 1.8 35.2
20:30 1022 30.18 851 25.13 8.8 47.9 61 1.7 35
20:35 1022 30.18 851 25.13 8.7 47.7 61 1.7 35.1
20:40 1022 30.18 851 25.13 8.5 47.2 62 1.7 35
20:45 1022 30.18 851 25.13 8.2 46.8 62 1.5 34.8
20:50 1022 30.18 851 25.13 8.2 46.8 62 1.4 34.6
20:55 1022 30.18 851 25.13 8.2 46.8 62 1.4 34.6
21:00 1022 30.18 851 25.13 8.1 46.5 63 1.5 34.7
21:05 1022 30.18 851 25.13 8 46.3 62 1.2 34.1
21:10 1022 30.18 852 25.16 8.1 46.6 62 1.3 34.3
21:15 1022 30.18 852 25.16 7.9 46.2 63 1.4 34.5
21:20 1022 30.18 851 25.13 7.7 45.8 64 1.3 34.3
21:25 1022 30.18 851 25.13 7.6 45.6 64 1.3 34.3
21:30 1022 30.18 851 25.13 7.4 45.4 64 1.1 34
21:35 1022 30.18 851 25.13 7.5 45.4 64 1.1 33.9
21:40 1022 30.18 851 25.13 7.5 45.5 63 0.9 33.6
21:45 1022 30.18 851 25.13 7.6 45.6 63 0.9 33.7
21:50 1022 30.18 851 25.13 7.6 45.6 63 1 33.7
21:55 1022 30.18 851 25.13 7.7 45.8 62 0.8 33.4
22:00 1022 30.18 851 25.13 7.7 45.9 62 1 33.7
22:05 1022 30.18 851 25.13 7.5 45.5 63 0.9 33.7
22:10 1022 30.18 851 25.13 7.7 45.8 62 0.9 33.7
22:15 1022 30.18 851 25.13 7.6 45.8 63 1.1 34
22:20 1022 30.18 851 25.13 7.5 45.5 63 1 33.8
22:25 1022 30.18 851 25.13 7.5 45.6 63 1 33.8
22:30 1022 30.18 851 25.13 7.6 45.7 63 1 33.8
22:35 1022 30.18 851 25.13 7.6 45.7 63 1.1 34
22:40 1022 30.18 851 25.13 7.5 45.5 64 1.2 34.1
22:45 1022 30.18 851 25.13 7.5 45.4 63 1 33.7
22:50 1022 30.18 851 25.13 7.7 45.8 62 0.8 33.5
22:55 1022 30.18 851 25.13 8 46.4 61 0.9 33.6
23:00 1022 30.18 852 25.16 8.1 46.5 60 0.8 33.4
23:05 1022 30.18 852 25.16 8.1 46.7 60 0.8 33.5
23:10 1022 30.18 852 25.16 8 46.4 60 0.8 33.5
23:15 1022 30.18 852 25.16 7.8 46 61 0.7 33.2
23:20 1022 30.18 852 25.16 7.9 46.3 60 0.7 33.2
23:25 1023 30.21 852 25.16 8 46.4 60 0.8 33.5
23:30 1023 30.21 852 25.16 7.8 46 62 0.9 33.7
23:35 1023 30.21 852 25.16 7.5 45.5 62 0.8 33.5
23:40 1023 30.21 852 25.16 7.4 45.3 63 0.8 33.4
23:45 1023 30.21 852 25.16 7.3 45.1 64 0.9 33.6
23:50 1023 30.21 852 25.16 7 44.7 65 0.9 33.6
23:55 1023 30.21 852 25.16 7 44.6 65 0.9 33.5
24:00 1023 30.21 852 25.16 7.2 44.9 64 0.8 33.4